createdAt,value
2023-11-23T04:46:26.095Z,101339.16
2023-11-23T04:49:29.205Z,101339.16
2023-11-23T04:52:31.848Z,101342.25
2023-11-23T04:55:34.632Z,101340.38
2023-11-23T04:58:37.371Z,101347.22
2023-11-23T05:01:40.350Z,101347.19
2023-11-23T05:04:42.791Z,101341.22
2023-11-23T05:07:45.837Z,101347.22
2023-11-23T05:10:48.961Z,101339.53
2023-11-23T05:13:51.865Z,101352.37
2023-11-23T05:16:54.649Z,101351.50
2023-11-23T05:19:57.848Z,101356.63
2023-11-23T05:23:00.520Z,101359.13
2023-11-23T05:26:04.340Z,101368.53
2023-11-23T05:29:07.465Z,101363.34
2023-11-23T05:32:10.480Z,101366.09
2023-11-23T05:35:14.006Z,101361.78
2023-11-23T05:38:16.994Z,101356.63
2023-11-23T05:41:19.563Z,101346.41
2023-11-23T05:44:22.671Z,101357.50
2023-11-23T05:47:25.325Z,101353.09
2023-11-23T05:50:28.166Z,101365.09
2023-11-23T05:53:30.867Z,101366.06
2023-11-23T05:56:34.993Z,101350.44
2023-11-23T05:59:38.009Z,101359.91
2023-11-23T06:02:42.383Z,101354.72
2023-11-23T06:05:45.168Z,101350.38
2023-11-23T06:08:48.153Z,101357.25
2023-11-23T06:11:51.442Z,101351.31
2023-11-23T06:14:54.088Z,101347.12
2023-11-23T06:18:07.469Z,101356.59
2023-11-23T06:21:17.663Z,101360.00
2023-11-23T06:24:20.435Z,101363.56
2023-11-23T06:27:23.530Z,101355.91
2023-11-23T06:30:26.481Z,101355.94
2023-11-23T06:33:29.046Z,101357.69
2023-11-23T06:36:32.104Z,101358.63
2023-11-23T06:39:38.108Z,101354.31
2023-11-23T06:42:41.165Z,101355.13
2023-11-23T06:45:44.454Z,101345.59
2023-11-23T06:48:47.492Z,101349.09
2023-11-23T06:51:49.828Z,101333.59
2023-11-23T06:54:53.206Z,101336.09
2023-11-23T06:57:55.770Z,101339.53
2023-11-23T07:00:59.019Z,101325.88
2023-11-23T07:04:01.772Z,101318.25
2023-11-23T07:07:06.335Z,101315.66
2023-11-23T07:10:09.275Z,101324.34
2023-11-23T07:13:12.403Z,101328.69
2023-11-23T07:16:15.423Z,101325.22
2023-11-23T07:19:20.129Z,101330.44
2023-11-23T07:22:24.480Z,101323.66
2023-11-23T07:25:27.835Z,101335.66
2023-11-23T07:28:31.080Z,101333.88
2023-11-23T07:31:34.146Z,101333.91
2023-11-23T07:34:38.392Z,101314.13
2023-11-23T07:37:42.794Z,101315.88
2023-11-23T07:40:45.317Z,101314.16
2023-11-23T07:43:48.631Z,101317.66
2023-11-23T07:46:51.900Z,101324.53
2023-11-23T07:49:56.644Z,101318.50
2023-11-23T07:52:59.211Z,101323.72
2023-11-23T07:56:02.186Z,101307.41
2023-11-23T07:59:04.751Z,101303.16
2023-11-23T08:02:08.327Z,101308.28
2023-11-23T08:05:11.351Z,101307.44
2023-11-23T08:08:14.666Z,101300.53
2023-11-23T08:11:18.339Z,101293.59
2023-11-23T08:14:21.525Z,101288.44
2023-11-23T08:17:24.402Z,101293.63
2023-11-23T08:20:28.292Z,101285.88
2023-11-23T08:23:32.461Z,101288.50
2023-11-23T08:26:34.949Z,101274.72
2023-11-23T08:29:37.557Z,101276.47
2023-11-23T08:32:40.350Z,101275.62
2023-11-23T08:35:43.379Z,101275.62
2023-11-23T08:38:46.142Z,101272.19
2023-11-23T08:41:48.945Z,101259.25
2023-11-23T08:44:52.411Z,101264.41
2023-11-23T08:47:56.247Z,101262.66
2023-11-23T08:51:01.089Z,101262.66
2023-11-23T08:54:06.859Z,101273.00
2023-11-23T08:57:09.608Z,101268.63
2023-11-23T09:00:13.392Z,101272.06
2023-11-23T09:03:16.270Z,101277.19
2023-11-23T09:06:19.843Z,101273.66
2023-11-23T09:09:22.931Z,101267.50
2023-11-23T09:12:28.932Z,101265.59
2023-11-23T09:15:31.436Z,101265.56
2023-11-23T09:18:40.702Z,101256.00
2023-11-23T09:21:43.189Z,101259.28
2023-11-23T09:24:46.010Z,101262.62
2023-11-23T09:27:48.460Z,101248.69
2023-11-23T09:30:52.769Z,101245.03
2023-11-23T09:33:57.001Z,101231.91
2023-11-23T09:36:59.949Z,101226.75
2023-11-23T09:40:03.433Z,101234.69
2023-11-23T09:43:06.166Z,101240.81
2023-11-23T09:46:09.300Z,101252.06
2023-11-23T09:49:19.595Z,101246.19
2023-11-23T09:52:22.358Z,101240.25
2023-11-23T09:55:27.108Z,101239.50
2023-11-23T09:58:29.909Z,101237.91
2023-11-23T10:01:34.531Z,101229.25
2023-11-23T10:04:37.674Z,101231.84
2023-11-23T10:07:40.144Z,101227.63
2023-11-23T10:10:43.600Z,101225.09
2023-11-23T10:13:47.549Z,101209.53
2023-11-23T10:16:50.185Z,101200.03
2023-11-23T10:19:52.947Z,101201.72
2023-11-23T10:22:57.034Z,101197.44
2023-11-23T10:26:01.729Z,101196.63
2023-11-23T10:29:06.842Z,101197.56
2023-11-23T10:32:11.122Z,101183.72
2023-11-23T10:35:17.175Z,101175.03
2023-11-23T10:38:29.660Z,101160.25
2023-11-23T10:41:40.813Z,101161.78
2023-11-23T10:44:45.246Z,101158.94
2023-11-23T10:47:54.429Z,101155.37
2023-11-23T10:51:00.318Z,101135.37
2023-11-23T10:54:05.393Z,101131.72
2023-11-23T10:57:11.095Z,101124.56
2023-11-23T11:00:24.251Z,101115.13
2023-11-23T11:03:29.344Z,101111.47
2023-11-23T11:06:40.356Z,101111.31
2023-11-23T11:09:42.806Z,101109.22
2023-11-23T11:12:48.984Z,101103.28
2023-11-23T11:15:59.219Z,101097.13
2023-11-23T11:19:09.214Z,101098.37
2023-11-23T11:22:15.473Z,101097.13
2023-11-23T11:25:19.061Z,101078.91
2023-11-23T11:28:23.357Z,101088.75
2023-11-23T11:31:49.020Z,101076.88
2023-11-23T11:35:02.318Z,101071.63
2023-11-23T11:38:06.328Z,101060.28
2023-11-23T11:41:10.698Z,101050.72
2023-11-23T11:44:14.915Z,101034.22
2023-11-23T11:47:18.289Z,101029.81
2023-11-23T11:50:23.581Z,101030.53
2023-11-23T11:53:27.584Z,101028.69
2023-11-23T11:56:30.298Z,101026.38
2023-11-23T11:59:32.859Z,101020.84
2023-11-23T12:02:35.760Z,101016.37
2023-11-23T12:05:43.364Z,101011.25
2023-11-23T12:08:46.691Z,101013.28
2023-11-23T12:11:52.437Z,101001.72
2023-11-23T12:14:59.991Z,100982.22
2023-11-23T12:18:05.112Z,100981.28
2023-11-23T12:21:14.689Z,100979.09
2023-11-23T12:24:20.956Z,100971.00
2023-11-23T12:27:26.790Z,100972.91
2023-11-23T12:30:32.754Z,100962.84
2023-11-23T12:33:35.827Z,100963.44
2023-11-23T12:36:44.261Z,100963.91
2023-11-23T12:39:50.888Z,100946.25
2023-11-23T12:42:54.738Z,100938.91
2023-11-23T12:45:57.460Z,100923.59
2023-11-23T12:49:03.209Z,100929.03
2023-11-23T12:52:06.555Z,100921.03
2023-11-23T12:55:10.525Z,100920.84
2023-11-23T12:58:17.893Z,100909.25
2023-11-23T13:01:22.007Z,100903.16
2023-11-23T13:04:29.461Z,100900.16
2023-11-23T13:07:33.529Z,100896.56
2023-11-23T13:10:36.086Z,100888.59
2023-11-23T13:13:41.877Z,100881.28
2023-11-23T13:16:45.997Z,100886.53
2023-11-23T13:19:49.434Z,100885.47
2023-11-23T13:22:52.361Z,100863.44
2023-11-23T13:25:55.981Z,100862.00
2023-11-23T13:28:58.743Z,100864.22
2023-11-23T13:32:02.181Z,100853.34
2023-11-23T13:35:07.587Z,100845.97
2023-11-23T13:38:11.822Z,100837.75
2023-11-23T13:41:16.301Z,100835.97
2023-11-23T13:44:19.391Z,100841.53
2023-11-23T13:47:22.216Z,100826.69
2023-11-23T13:50:26.414Z,100811.28
2023-11-23T13:53:29.223Z,100806.22
2023-11-23T13:56:32.498Z,100791.72
2023-11-23T13:59:37.702Z,100780.13
2023-11-23T14:02:41.216Z,100773.28
2023-11-23T14:05:44.543Z,100760.59
2023-11-23T14:08:48.166Z,100774.41
2023-11-23T14:11:55.615Z,100771.03
2023-11-23T14:14:58.612Z,100761.97
2023-11-23T14:18:02.359Z,100771.25
2023-11-23T14:21:08.130Z,100763.75
2023-11-23T14:24:11.757Z,100752.13
2023-11-23T14:27:15.027Z,100752.13
2023-11-23T14:30:18.624Z,100749.63
2023-11-23T14:33:23.198Z,100742.69
2023-11-23T14:36:27.031Z,100732.25
2023-11-23T14:39:30.027Z,100725.84
2023-11-23T14:42:41.424Z,100734.00
2023-11-23T14:45:48.015Z,100729.63
2023-11-23T14:48:52.615Z,100735.84
2023-11-23T14:51:57.081Z,100725.72
2023-11-23T14:55:01.542Z,100717.50
2023-11-23T14:58:04.964Z,100714.84
2023-11-23T15:01:08.458Z,100720.25
2023-11-23T15:04:15.009Z,100719.59
2023-11-23T15:07:18.484Z,100714.53
2023-11-23T15:10:22.062Z,100698.06
2023-11-23T15:13:32.667Z,100693.81
2023-11-23T15:16:41.387Z,100694.03
2023-11-23T15:19:44.952Z,100697.38
2023-11-23T15:22:48.142Z,100689.81
2023-11-23T15:25:51.944Z,100685.63
2023-11-23T15:28:55.279Z,100690.06
2023-11-23T15:32:03.469Z,100679.69
2023-11-23T15:35:08.584Z,100685.66
2023-11-23T15:38:12.120Z,100672.56
2023-11-23T15:41:16.850Z,100664.28
2023-11-23T15:44:20.241Z,100663.66
2023-11-23T15:47:24.373Z,100661.06
2023-11-23T15:50:29.394Z,100654.91
2023-11-23T15:53:34.972Z,100658.34
2023-11-23T15:56:38.542Z,100652.53
2023-11-23T15:59:41.778Z,100645.78
2023-11-23T16:02:47.248Z,100648.38
2023-11-23T16:05:52.111Z,100639.69
2023-11-23T16:08:58.571Z,100627.72
2023-11-23T16:12:02.435Z,100636.72
2023-11-23T16:15:07.961Z,100639.50
2023-11-23T16:18:13.833Z,100634.47
2023-11-23T16:21:18.755Z,100639.59
2023-11-23T16:24:22.448Z,100643.06
2023-11-23T16:27:25.450Z,100635.38
2023-11-23T16:30:29.179Z,100633.66
2023-11-23T16:33:32.265Z,100634.59
2023-11-23T16:36:39.711Z,100634.50
2023-11-23T16:39:43.586Z,100630.28
2023-11-23T16:42:47.996Z,100619.81
2023-11-23T16:45:51.441Z,100617.19
2023-11-23T16:48:56.046Z,100613.63
2023-11-23T16:52:00.905Z,100601.66
